Terminal Aerodrome Forecast
Issued by NWS

Home | Current Version | Previous Version | Text Only | Print | Product List | Glossary Off
Versions: 1 2 3 4 5 6 7 8 9 10 11 12 13 14 15 16 17

006
FTUS43 KTOP 141739
TAFMHK
TAF
KMHK 141739Z 1418/1518 22007KT P6SM SCT060
     FM150300 33007KT 3SM -SN OVC015
     FM150900 35011KT P6SM VCSH OVC045
     FM151200 36013G21KT P6SM OVC080=

USA.gov is the U.S. government's official web portal to all federal, state and local government web resources and services.